createdAt,value
2019-04-22T00:00:54.246Z,7.28
2019-04-22T00:03:33.947Z,7.85
2019-04-22T00:06:19.503Z,8.10
2019-04-22T00:08:50.686Z,7.83
2019-04-22T00:11:27.264Z,7.37
2019-04-22T00:13:51.964Z,7.90
2019-04-22T00:16:27.972Z,7.47
2019-04-22T00:19:08.902Z,7.50
2019-04-22T00:21:25.825Z,7.37
2019-04-22T00:23:51.943Z,8.35
2019-04-22T00:26:31.153Z,7.60
2019-04-22T00:29:03.899Z,7.65
2019-04-22T00:31:49.528Z,7.53
2019-04-22T00:34:21.265Z,7.53
2019-04-22T00:36:52.556Z,7.83
2019-04-22T00:39:21.318Z,7.53
2019-04-22T00:41:53.082Z,8.03
2019-04-22T00:44:25.572Z,7.53
2019-04-22T00:46:57.277Z,6.45
2019-04-22T00:51:58.347Z,6.85
2019-04-22T00:54:21.490Z,6.87
2019-04-22T00:56:58.239Z,7.20
2019-04-22T00:59:29.797Z,6.60
2019-04-22T01:02:03.695Z,6.50
2019-04-22T01:04:34.787Z,6.40
2019-04-22T01:07:02.044Z,5.78
2019-04-22T01:09:40.383Z,6.67
2019-04-22T01:12:07.280Z,6.72
2019-04-22T01:14:41.736Z,6.75
2019-04-22T01:17:05.950Z,6.28
2019-04-22T01:19:45.208Z,6.05
2019-04-22T01:22:13.599Z,5.97
2019-04-22T01:24:40.226Z,6.58
2019-04-22T01:27:08.083Z,6.58
2019-04-22T01:31:54.588Z,6.15
2019-04-22T01:34:40.466Z,6.53
2019-04-22T01:37:13.752Z,6.20
2019-04-22T01:39:49.885Z,6.50
2019-04-22T01:42:16.885Z,6.78
2019-04-22T01:44:51.005Z,6.72
2019-04-22T01:47:25.109Z,6.33
2019-04-22T01:49:55.984Z,6.50
2019-04-22T01:52:21.792Z,6.40
2019-04-22T01:54:59.738Z,6.50
2019-04-22T01:57:22.687Z,6.37
2019-04-22T01:59:51.565Z,6.37
2019-04-22T02:02:33.816Z,6.95
2019-04-22T02:04:59.843Z,5.97
2019-04-22T02:07:32.360Z,5.90
2019-04-22T02:10:05.580Z,6.65
2019-04-22T02:12:33.382Z,6.35
2019-04-22T02:15:00.831Z,6.00
2019-04-22T02:20:04.066Z,6.75
2019-04-22T02:22:50.185Z,6.22
2019-04-22T02:25:08.488Z,6.33
2019-04-22T02:27:43.315Z,5.95
2019-04-22T02:30:08.488Z,6.00
2019-04-22T02:35:41.186Z,5.70
2019-04-22T02:37:38.191Z,6.42
2019-04-22T02:40:21.249Z,6.50
2019-04-22T02:42:43.945Z,5.92
2019-04-22T02:45:16.438Z,7.40
2019-04-22T02:47:42.330Z,5.95
2019-04-22T02:50:12.658Z,6.37
2019-04-22T02:53:01.299Z,6.17
2019-04-22T02:55:15.608Z,6.37
2019-04-22T03:02:59.453Z,6.50
2019-04-22T03:05:27.901Z,6.62
2019-04-22T03:07:58.629Z,6.50
2019-04-22T03:10:29.850Z,5.97
2019-04-22T03:12:54.069Z,6.35
2019-04-22T03:15:20.350Z,5.97
2019-04-22T03:18:27.382Z,6.55
2019-04-22T03:20:48.618Z,6.87
2019-04-22T03:23:05.720Z,6.87
2019-04-22T03:27:50.580Z,6.47
2019-04-22T03:43:02.305Z,6.55
2019-04-22T03:55:41.201Z,6.87
2019-04-22T03:58:16.645Z,6.78
2019-04-22T04:03:09.807Z,6.30
2019-04-22T04:08:26.769Z,6.12
2019-04-22T04:15:34.322Z,7.03
2019-04-22T04:18:12.899Z,7.10
2019-04-22T04:20:46.708Z,6.72
2019-04-22T04:28:29.814Z,6.83
2019-04-22T04:30:37.917Z,6.53
2019-04-22T04:35:52.998Z,7.00
2019-04-22T04:38:24.450Z,6.53
2019-04-22T04:41:06.289Z,6.83
2019-04-22T04:43:16.151Z,6.53
2019-04-22T04:46:16.565Z,6.42
2019-04-22T04:48:27.686Z,6.05
2019-04-22T04:51:04.651Z,6.15
2019-04-22T04:53:23.186Z,6.90
2019-04-22T04:55:53.621Z,6.12
2019-04-22T05:00:57.925Z,6.45
2019-04-22T05:03:32.904Z,7.10
2019-04-22T05:08:42.585Z,5.92
2019-04-22T05:11:03.518Z,6.17
2019-04-22T05:13:36.336Z,5.80
2019-04-22T05:16:11.489Z,6.28
2019-04-22T05:18:35.106Z,5.30
2019-04-22T05:21:09.794Z,5.95
2019-04-22T05:23:30.104Z,5.35
2019-04-22T05:25:57.337Z,6.15
2019-04-22T05:28:25.900Z,5.45
2019-04-22T05:30:56.084Z,5.63
2019-04-22T05:33:32.187Z,5.70
2019-04-22T05:35:53.618Z,5.60
2019-04-22T05:38:33.275Z,5.80
2019-04-22T05:41:00.504Z,5.70
2019-04-22T05:43:27.376Z,5.85
2019-04-22T05:45:59.239Z,5.78
2019-04-22T05:48:33.164Z,5.50
2019-04-22T05:50:56.417Z,5.78
2019-04-22T05:53:28.944Z,5.67
2019-04-22T05:56:01.512Z,5.97
2019-04-22T06:03:37.686Z,6.03
2019-04-22T06:06:09.031Z,5.92
2019-04-22T06:08:41.828Z,5.72
2019-04-22T06:11:16.829Z,5.95
2019-04-22T06:13:38.954Z,5.17
2019-04-22T06:16:31.172Z,6.03
2019-04-22T06:18:47.300Z,5.72
2019-04-22T06:21:18.942Z,5.50
2019-04-22T06:23:58.810Z,5.60
2019-04-22T06:26:30.948Z,5.72
2019-04-22T06:28:56.551Z,5.55
2019-04-22T06:31:26.814Z,5.80
2019-04-22T06:33:56.492Z,5.23
2019-04-22T06:36:27.609Z,6.17
2019-04-22T06:38:51.374Z,5.40
2019-04-22T06:41:42.222Z,6.00
2019-04-22T06:44:04.841Z,4.78
2019-04-22T06:46:37.872Z,5.70
2019-04-22T06:49:04.688Z,5.35
2019-04-22T06:51:35.635Z,5.10
2019-04-22T06:54:01.772Z,5.15
2019-04-22T06:56:27.529Z,5.03
2019-04-22T06:58:58.006Z,4.97
2019-04-22T07:01:35.830Z,5.00
2019-04-22T07:04:18.191Z,4.80
2019-04-22T07:06:35.471Z,5.33
2019-04-22T07:09:25.298Z,5.20
2019-04-22T07:11:33.351Z,5.20
2019-04-22T07:14:07.106Z,5.37
2019-04-22T07:16:38.210Z,5.05
2019-04-22T07:19:12.180Z,5.35
2019-04-22T07:21:41.894Z,5.65
2019-04-22T07:26:37.271Z,5.08
2019-04-22T07:29:07.589Z,5.25
2019-04-22T07:31:42.716Z,5.05
2019-04-22T07:34:16.048Z,5.10
2019-04-22T07:36:55.131Z,5.28
2019-04-22T07:39:10.353Z,4.80
2019-04-22T07:41:58.627Z,5.00
2019-04-22T07:46:49.967Z,4.78
2019-04-22T07:49:33.859Z,4.58
2019-04-22T07:51:46.689Z,4.90
2019-04-22T07:54:16.746Z,4.50
2019-04-22T07:56:48.738Z,4.28
2019-04-22T07:59:18.712Z,4.15
2019-04-22T08:01:43.848Z,3.98
2019-04-22T08:04:23.132Z,4.03
2019-04-22T08:06:52.317Z,4.20
2019-04-22T08:09:20.112Z,3.50
2019-04-22T08:11:53.412Z,4.53
2019-04-22T08:14:20.889Z,4.35
2019-04-22T08:16:51.842Z,3.35
2019-04-22T08:19:23.170Z,3.98
2019-04-22T08:21:53.318Z,3.67
2019-04-22T08:24:23.919Z,3.67
2019-04-22T08:26:56.102Z,3.77
2019-04-22T08:29:26.529Z,3.62
2019-04-22T08:31:55.431Z,3.83
2019-04-22T08:39:25.325Z,4.10
2019-04-22T08:41:50.904Z,3.95
2019-04-22T08:44:40.180Z,3.77
2019-04-22T08:47:08.686Z,3.37
2019-04-22T08:49:39.321Z,3.35
2019-04-22T08:52:01.396Z,3.62
2019-04-22T08:54:44.992Z,3.33
2019-04-22T08:57:07.241Z,3.80
2019-04-22T08:59:21.784Z,3.40
2019-04-22T09:02:06.294Z,3.60
2019-04-22T09:04:31.328Z,3.83
2019-04-22T09:07:18.404Z,3.27
2019-04-22T09:09:34.640Z,3.25
2019-04-22T09:12:08.434Z,3.42
2019-04-22T09:14:38.183Z,4.25
2019-04-22T09:17:10.375Z,3.10
2019-04-22T09:19:38.475Z,3.58
2019-04-22T09:24:41.415Z,3.25
2019-04-22T09:27:11.478Z,3.40
2019-04-22T09:29:41.246Z,3.27
2019-04-22T09:32:14.702Z,3.60
2019-04-22T09:34:43.295Z,3.40
2019-04-22T09:39:41.366Z,3.37
2019-04-22T09:42:11.526Z,3.35
2019-04-22T09:45:04.066Z,3.77
2019-04-22T09:47:11.719Z,3.45
2019-04-22T09:49:53.168Z,3.90
2019-04-22T09:52:15.063Z,3.30
2019-04-22T09:54:57.575Z,3.30
2019-04-22T09:57:16.950Z,4.00
2019-04-22T09:59:54.441Z,3.25
2019-04-22T10:04:57.123Z,3.85
2019-04-22T10:07:20.946Z,3.83
2019-04-22T10:09:59.397Z,3.30
2019-04-22T10:12:29.970Z,4.10
2019-04-22T10:14:49.236Z,3.67
2019-04-22T10:17:17.858Z,3.58
2019-04-22T10:20:08.769Z,3.25
2019-04-22T10:22:27.553Z,3.92
2019-04-22T10:24:53.625Z,3.55
2019-04-22T10:27:21.342Z,3.75
2019-04-22T10:30:01.550Z,4.13
2019-04-22T10:32:27.136Z,3.33
2019-04-22T10:34:43.612Z,3.42
2019-04-22T10:37:11.161Z,3.55
2019-04-22T10:39:48.118Z,4.10
2019-04-22T10:42:11.336Z,3.72
2019-04-22T10:44:41.362Z,3.70
2019-04-22T10:47:11.779Z,3.50
2019-04-22T10:49:42.449Z,3.42
2019-04-22T10:52:12.846Z,3.10
2019-04-22T10:54:41.706Z,3.27
2019-04-22T10:57:10.909Z,3.50
2019-04-22T10:59:40.786Z,3.60
2019-04-22T11:02:09.879Z,3.83
2019-04-22T11:04:38.806Z,3.50
2019-04-22T11:07:10.993Z,3.42
2019-04-22T11:09:49.425Z,3.58
2019-04-22T11:12:13.643Z,3.40
2019-04-22T11:14:42.806Z,4.15
2019-04-22T11:17:11.419Z,4.08
2019-04-22T11:19:41.424Z,3.60
2019-04-22T11:22:18.802Z,3.72
2019-04-22T11:24:44.504Z,3.80
2019-04-22T11:27:14.910Z,3.70
2019-04-22T11:29:43.914Z,3.40
2019-04-22T11:32:12.966Z,3.50
2019-04-22T11:34:42.884Z,3.87
2019-04-22T11:37:12.276Z,3.47
2019-04-22T11:39:42.564Z,4.03
2019-04-22T11:42:16.386Z,3.77
2019-04-22T11:44:45.429Z,3.67
2019-04-22T11:47:15.128Z,3.90
2019-04-22T11:49:45.772Z,3.92
2019-04-22T11:52:16.683Z,3.45
2019-04-22T11:54:46.519Z,3.72
2019-04-22T11:57:16.982Z,3.90
2019-04-22T11:59:49.042Z,5.12
2019-04-22T12:02:21.978Z,5.67
2019-04-22T12:04:54.015Z,5.75
2019-04-22T12:07:24.260Z,5.92
2019-04-22T12:09:53.469Z,5.50
2019-04-22T12:12:23.604Z,5.53
2019-04-22T12:14:52.409Z,6.03
2019-04-22T12:17:22.331Z,6.80
2019-04-22T12:19:52.379Z,5.75
2019-04-22T12:22:23.012Z,5.28
2019-04-22T12:24:52.483Z,5.92
2019-04-22T12:27:22.819Z,5.70
2019-04-22T12:29:53.150Z,5.37
2019-04-22T12:32:23.283Z,5.30
2019-04-22T12:34:53.385Z,5.30
2019-04-22T12:37:30.788Z,5.55
2019-04-22T12:39:56.350Z,5.10
2019-04-22T12:42:23.660Z,5.00
2019-04-22T12:44:53.919Z,5.28
2019-04-22T12:47:24.222Z,5.20
2019-04-22T12:50:02.382Z,4.22
2019-04-22T12:52:33.959Z,5.63
2019-04-22T12:54:55.176Z,4.83
2019-04-22T12:57:24.889Z,5.25
2019-04-22T12:59:55.333Z,4.87
2019-04-22T13:02:25.172Z,5.10
2019-04-22T13:04:54.486Z,4.47
2019-04-22T13:07:24.101Z,4.35
2019-04-22T13:09:53.348Z,4.40
2019-04-22T13:12:22.569Z,4.65
2019-04-22T13:14:52.808Z,4.50
2019-04-22T13:17:22.971Z,4.42
2019-04-22T13:19:51.949Z,4.25
2019-04-22T13:22:21.073Z,4.30
2019-04-22T13:24:50.019Z,4.70
2019-04-22T13:27:19.311Z,4.35
2019-04-22T13:29:49.319Z,4.30
2019-04-22T13:32:18.670Z,4.30
2019-04-22T13:34:51.623Z,4.47
2019-04-22T13:37:19.156Z,4.25
2019-04-22T13:39:48.996Z,4.15
2019-04-22T13:42:21.690Z,4.20
2019-04-22T13:44:49.714Z,4.37
2019-04-22T13:47:35.068Z,4.65
2019-04-22T13:50:23.721Z,4.28
2019-04-22T13:52:55.014Z,4.40
2019-04-22T13:55:24.010Z,4.17
2019-04-22T13:57:41.439Z,4.10
2019-04-22T13:59:59.820Z,4.08
2019-04-22T14:03:04.652Z,3.70
2019-04-22T14:05:35.193Z,4.17
2019-04-22T14:08:06.274Z,3.65
2019-04-22T14:10:36.372Z,3.90
2019-04-22T14:13:05.724Z,3.90
2019-04-22T14:15:36.020Z,3.62
2019-04-22T14:18:07.172Z,3.80
2019-04-22T14:20:36.796Z,3.65
2019-04-22T14:23:08.335Z,4.25
2019-04-22T14:25:38.625Z,3.90
2019-04-22T14:28:13.067Z,3.70
2019-04-22T14:30:38.814Z,3.55
2019-04-22T14:33:09.913Z,3.62
2019-04-22T14:35:39.867Z,3.60
2019-04-22T14:38:10.178Z,3.37
2019-04-22T14:40:40.926Z,3.35
2019-04-22T14:43:35.151Z,3.45
2019-04-22T14:46:20.595Z,3.77
2019-04-22T14:48:46.345Z,3.20
2019-04-22T14:51:09.120Z,3.55
2019-04-22T14:53:41.445Z,2.97
2019-04-22T14:55:50.493Z,3.10
2019-04-22T14:58:19.478Z,3.55
2019-04-22T15:00:51.484Z,3.77
2019-04-22T15:03:19.771Z,3.37
2019-04-22T15:05:50.298Z,3.95
2019-04-22T15:08:19.251Z,3.50
2019-04-22T15:10:47.975Z,4.00
2019-04-22T15:13:17.772Z,3.70
2019-04-22T15:16:20.917Z,3.33
2019-04-22T15:19:17.958Z,3.70
2019-04-22T15:21:47.188Z,3.05
2019-04-22T15:24:27.229Z,3.77
2019-04-22T15:26:58.545Z,3.30
2019-04-22T15:31:57.655Z,3.20
2019-04-22T15:34:28.208Z,3.40
2019-04-22T15:36:58.090Z,2.85
2019-04-22T15:39:27.387Z,3.25
2019-04-22T15:42:06.522Z,2.92
2019-04-22T15:44:28.050Z,3.10
2019-04-22T15:46:57.471Z,3.08
2019-04-22T15:49:27.732Z,3.17
2019-04-22T15:51:59.399Z,2.52
2019-04-22T15:54:27.921Z,2.90
2019-04-22T15:56:56.868Z,2.50
2019-04-22T15:59:45.157Z,2.72
2019-04-22T16:02:00.094Z,2.30
2019-04-22T16:04:28.416Z,3.35
2019-04-22T16:06:57.258Z,2.75
2019-04-22T16:09:26.914Z,2.45
2019-04-22T16:12:09.404Z,2.55
2019-04-22T16:14:32.775Z,2.40
2019-04-22T16:16:58.824Z,3.00
2019-04-22T16:19:28.001Z,2.45
2019-04-22T16:22:03.946Z,2.72
2019-04-22T16:24:58.456Z,2.70
2019-04-22T16:27:30.079Z,2.60
2019-04-22T16:29:59.437Z,2.37
2019-04-22T16:32:29.876Z,2.50
2019-04-22T16:34:58.991Z,2.33
2019-04-22T16:37:28.509Z,2.80
2019-04-22T16:39:58.929Z,4.60
2019-04-22T16:42:38.057Z,2.42
2019-04-22T16:44:59.617Z,2.55
2019-04-22T16:47:28.777Z,2.67
2019-04-22T16:49:57.558Z,2.30
2019-04-22T16:52:26.201Z,2.60
2019-04-22T16:54:55.197Z,2.30
2019-04-22T16:57:24.265Z,2.35
2019-04-22T16:59:53.113Z,2.72
2019-04-22T17:02:50.631Z,2.83
2019-04-22T17:05:41.685Z,2.10
2019-04-22T17:08:10.456Z,2.35
2019-04-22T17:10:39.740Z,2.45
2019-04-22T17:13:13.654Z,2.33
2019-04-22T17:15:39.718Z,2.30
2019-04-22T17:18:09.548Z,2.30
2019-04-22T17:20:38.692Z,2.60
2019-04-22T17:23:07.520Z,2.65
2019-04-22T17:25:36.505Z,2.33
2019-04-22T17:28:05.756Z,2.30
2019-04-22T17:30:35.893Z,2.30
2019-04-22T17:33:08.437Z,2.40
2019-04-22T17:35:38.203Z,2.83
2019-04-22T17:38:18.524Z,1.90
2019-04-22T17:40:51.119Z,2.10
2019-04-22T17:43:40.453Z,2.10
2019-04-22T17:46:11.618Z,2.02
2019-04-22T17:49:05.538Z,1.90
2019-04-22T17:51:31.138Z,1.90
2019-04-22T17:54:02.659Z,2.40
2019-04-22T17:56:37.527Z,1.80
2019-04-22T17:59:10.451Z,1.90
2019-04-22T18:01:33.732Z,2.05
2019-04-22T18:03:52.807Z,1.75
2019-04-22T18:06:44.062Z,1.85
2019-04-22T18:09:05.006Z,2.10
2019-04-22T18:12:02.581Z,1.70
2019-04-22T18:14:30.008Z,1.70
2019-04-22T18:16:41.298Z,2.02
2019-04-22T18:19:13.615Z,1.90
2019-04-22T18:21:36.176Z,2.25
2019-04-22T18:24:01.303Z,1.80
2019-04-22T18:26:43.589Z,2.00
2019-04-22T18:29:11.593Z,1.80
2019-04-22T18:31:41.261Z,1.98
2019-04-22T18:34:16.947Z,1.85
2019-04-22T18:36:45.668Z,2.20
2019-04-22T18:39:28.150Z,1.87
2019-04-22T18:41:52.266Z,2.10
2019-04-22T18:44:22.689Z,1.82
2019-04-22T18:46:53.805Z,2.55
2019-04-22T18:49:23.185Z,2.33
2019-04-22T18:51:57.554Z,2.40
2019-04-22T18:54:43.830Z,2.17
2019-04-22T18:57:09.819Z,2.10
2019-04-22T18:59:28.842Z,2.33
2019-04-22T19:02:10.470Z,2.33
2019-04-22T19:04:47.382Z,2.40
2019-04-22T19:07:33.177Z,2.02
2019-04-22T19:10:04.534Z,2.15
2019-04-22T19:12:33.983Z,2.20
2019-04-22T19:15:22.750Z,2.33
2019-04-22T19:17:39.148Z,2.45
2019-04-22T19:22:39.086Z,2.67
2019-04-22T19:24:57.948Z,2.42
2019-04-22T19:27:34.612Z,2.47
2019-04-22T19:30:04.502Z,2.33
2019-04-22T19:32:35.370Z,2.52
2019-04-22T19:35:03.374Z,2.52
2019-04-22T19:37:33.868Z,2.95
2019-04-22T19:42:43.161Z,2.60
2019-04-22T19:45:05.849Z,2.40
2019-04-22T19:47:59.908Z,2.52
2019-04-22T19:50:11.597Z,2.55
2019-04-22T19:52:39.960Z,2.40
2019-04-22T19:55:14.100Z,2.62
2019-04-22T19:57:42.371Z,2.47
2019-04-22T20:00:14.795Z,2.30
2019-04-22T20:03:03.277Z,2.60
2019-04-22T20:05:47.598Z,2.25
2019-04-22T20:08:21.530Z,1.90
2019-04-22T20:10:46.028Z,2.17
2019-04-22T20:13:24.330Z,2.50
2019-04-22T20:15:40.880Z,2.20
2019-04-22T20:18:39.406Z,2.17
2019-04-22T20:20:56.101Z,2.65
2019-04-22T20:23:15.959Z,2.40
2019-04-22T20:25:49.687Z,2.27
2019-04-22T20:28:25.945Z,2.27
2019-04-22T20:30:50.614Z,2.58
2019-04-22T20:33:29.253Z,2.58
2019-04-22T20:35:58.167Z,2.33
2019-04-22T20:38:28.154Z,1.95
2019-04-22T20:40:55.188Z,2.35
2019-04-22T20:43:38.596Z,2.05
2019-04-22T20:48:44.171Z,1.80
2019-04-22T20:51:11.373Z,2.05
2019-04-22T20:53:44.184Z,2.07
2019-04-22T20:56:11.484Z,2.60
2019-04-22T20:58:46.662Z,2.17
2019-04-22T21:01:06.461Z,2.87
2019-04-22T21:03:59.853Z,2.42
2019-04-22T21:06:42.888Z,2.20
2019-04-22T21:09:18.410Z,2.77
2019-04-22T21:11:46.711Z,2.35
2019-04-22T21:14:17.793Z,2.37
2019-04-22T21:16:51.868Z,2.90
2019-04-22T21:19:28.039Z,2.58
2019-04-22T21:21:59.688Z,2.37
2019-04-22T21:24:23.772Z,2.47
2019-04-22T21:26:58.370Z,2.72
2019-04-22T21:29:26.726Z,2.42
2019-04-22T21:32:01.564Z,3.17
2019-04-22T21:34:23.328Z,2.83
2019-04-22T21:37:05.782Z,2.95
2019-04-22T21:39:29.323Z,2.83
2019-04-22T21:41:58.781Z,2.77
2019-04-22T21:44:41.069Z,3.00
2019-04-22T21:47:14.712Z,3.50
2019-04-22T21:49:45.880Z,2.77
2019-04-22T21:52:27.827Z,3.12
2019-04-22T21:55:07.012Z,3.12
2019-04-22T21:58:01.542Z,2.62
2019-04-22T22:00:43.268Z,2.98
2019-04-22T22:03:10.903Z,3.30
2019-04-22T22:05:30.048Z,2.90
2019-04-22T22:07:56.119Z,3.37
2019-04-22T22:10:43.440Z,2.98
2019-04-22T22:13:24.904Z,2.80
2019-04-22T22:15:51.150Z,2.90
2019-04-22T22:18:22.814Z,3.10
2019-04-22T22:21:12.935Z,3.22
2019-04-22T22:23:31.694Z,2.95
2019-04-22T22:25:55.801Z,3.10
2019-04-22T22:28:49.375Z,2.55
2019-04-22T22:31:02.020Z,2.75
2019-04-22T22:33:28.295Z,3.10
2019-04-22T22:35:58.422Z,3.08
2019-04-22T22:38:26.926Z,3.40
2019-04-22T22:40:43.691Z,3.58
2019-04-22T22:43:24.917Z,3.10
2019-04-22T22:45:49.130Z,3.40
2019-04-22T22:48:36.541Z,3.15
2019-04-22T22:50:58.526Z,2.83
2019-04-22T22:53:40.488Z,3.10
2019-04-22T22:56:05.113Z,3.37
2019-04-22T22:58:34.795Z,3.20
2019-04-22T23:01:04.478Z,3.55
2019-04-22T23:06:15.730Z,3.42
2019-04-22T23:08:41.715Z,3.58
2019-04-22T23:11:12.093Z,3.60
2019-04-22T23:13:40.409Z,3.47
2019-04-22T23:16:00.500Z,3.52
2019-04-22T23:18:21.810Z,3.70
2019-04-22T23:20:53.626Z,3.70
2019-04-22T23:23:38.140Z,3.52
2019-04-22T23:26:32.206Z,3.80
2019-04-22T23:29:07.118Z,3.22
2019-04-22T23:31:35.490Z,3.80
2019-04-22T23:34:15.937Z,3.47
2019-04-22T23:36:50.017Z,4.45
2019-04-22T23:39:33.365Z,3.80
2019-04-22T23:42:20.885Z,3.42
2019-04-22T23:44:32.442Z,3.52
2019-04-22T23:47:01.581Z,4.10
2019-04-22T23:49:31.502Z,4.10
2019-04-22T23:52:11.426Z,3.90
2019-04-22T23:54:48.533Z,3.80
2019-04-22T23:57:15.197Z,3.75
